Cloverdale, Alabama
Current Conditions -  °F | °C
As of 9:53 AM on Wednesday 22 Oct 2014 (Local Time) from KMSL Reporting Station
Clear Clear  
Wind Chill: 58°   Ceiling: Unl
Heat Index: 58°   Visibility: 10mi
Dew Point: 41°   Wind: 7mph
Humidity: 53%   Direction: NA
Pressure: 30.24"   Gusts: NA
Location:  34.94°N, 87.77°W
Report Text: KMSL 221453Z AUTO VRB06KT 10SM CLR 14/05 A3024 RMK AO2 SLP237 T01440050 51017
Loading
Personal Weather Stations






























Interactive Weather Map
Tropical Storm Tracking
New forecast layout! Learn more

10-Day Weather Forecast

Advertisements
Track Severe Weather on mobile